Time;durP1;ratioP1;P1;durP2;ratioP2;P2;SDS_P1;SDS_P2;PMS_P1;PMS_P2;Temp;Humidity;BMP_temperature;BMP_pressure;BME280_temperature;BME280_humidity;BME280_pressure;Samples;Min_cycle;Max_cycle;Signal;HPM_P1;HPM_P2
2021/11/26 00:02:02;;;;;;;13.47;9.17;;;;;;;;;;4547759;28;20029;-71
2021/11/26 00:04:13;;;;;;;13.80;9.60;;;;;;;;;;4543670;28;20024;-71
2021/11/26 00:06:23;;;;;;;13.70;9.20;;;;;;;;;;4547594;28;20025;-71
2021/11/26 00:08:33;;;;;;;13.90;9.43;;;;;;;;;;4552031;28;20140;-71
2021/11/26 00:10:44;;;;;;;14.83;9.47;;;;;;;;;;4550876;28;20560;-71
2021/11/26 00:13:01;;;;;;;13.60;8.40;;;;;;;;;;4553220;28;20041;-71
2021/11/26 00:17:22;;;;;;;13.43;9.07;;;;;;;;;;4551249;28;20139;-71
2021/11/26 00:19:32;;;;;;;13.47;8.33;;;;;;;;;;4551470;28;20080;-71
2021/11/26 00:21:42;;;;;;;13.30;8.80;;;;;;;;;;4552666;28;20044;-72
2021/11/26 00:23:53;;;;;;;13.97;9.20;;;;;;;;;;4551226;28;20134;-71
2021/11/26 00:26:03;;;;;;;13.47;8.80;;;;;;;;;;4553221;28;20674;-71
2021/11/26 00:28:14;;;;;;;12.97;9.00;;;;;;;;;;4551610;28;20438;-71
2021/11/26 00:30:26;;;;;;;12.50;8.63;;;;;;;;;;4552619;28;20429;-71
2021/11/26 00:32:37;;;;;;;12.27;8.60;;;;;;;;;;4552370;28;20291;-71
2021/11/26 00:34:47;;;;;;;16.33;8.90;;;;;;;;;;4551192;28;20515;-71
2021/11/26 00:36:57;;;;;;;11.93;8.13;;;;;;;;;;4549503;28;31055;-71
2021/11/26 00:39:08;;;;;;;11.67;8.07;;;;;;;;;;4550388;28;20187;-72
2021/11/26 00:41:18;;;;;;;12.90;8.47;;;;;;;;;;4550062;28;23519;-72
2021/11/26 00:43:30;;;;;;;15.27;9.00;;;;;;;;;;4552784;28;20032;-72
2021/11/26 00:45:40;;;;;;;12.48;8.38;;;;;;;;;;4550495;28;20086;-72
2021/11/26 00:47:51;;;;;;;12.77;8.33;;;;;;;;;;4551192;28;20616;-72
2021/11/26 00:50:02;;;;;;;13.50;8.50;;;;;;;;;;4553590;28;20037;-72
2021/11/26 00:52:12;;;;;;;11.65;7.65;;;;;;;;;;4548889;28;20470;-72
2021/11/26 00:54:22;;;;;;;14.20;8.80;;;;;;;;;;4550721;28;33195;-73
2021/11/26 00:56:34;;;;;;;13.10;8.83;;;;;;;;;;4549139;28;20036;-72
2021/11/26 00:58:44;;;;;;;14.02;9.18;;;;;;;;;;4548505;28;20040;-72
2021/11/26 01:00:55;;;;;;;13.67;8.40;;;;;;;;;;4549513;28;20991;-72
2021/11/26 01:03:06;;;;;;;12.90;8.83;;;;;;;;;;4550305;28;20056;-72
2021/11/26 01:05:16;;;;;;;13.85;8.00;;;;;;;;;;4566529;28;20542;-72
2021/11/26 01:07:27;;;;;;;12.40;8.20;;;;;;;;;;4550735;28;20037;-72
2021/11/26 01:09:37;;;;;;;12.87;8.20;;;;;;;;;;4549991;28;20033;-71
2021/11/26 01:11:48;;;;;;;12.30;7.63;;;;;;;;;;4550595;28;31740;-70
2021/11/26 01:13:58;;;;;;;11.73;8.40;;;;;;;;;;4552764;28;20032;-71
2021/11/26 01:16:09;;;;;;;12.37;8.60;;;;;;;;;;4550227;28;20543;-71
2021/11/26 01:18:19;;;;;;;11.77;7.53;;;;;;;;;;4549723;28;30572;-71
2021/11/26 01:20:30;;;;;;;12.73;8.03;;;;;;;;;;4547372;28;20086;-71
2021/11/26 01:22:41;;;;;;;11.82;8.20;;;;;;;;;;4545757;28;20033;-71
2021/11/26 01:24:52;;;;;;;11.00;7.33;;;;;;;;;;4549489;28;20485;-72
2021/11/26 01:27:06;;;;;;;11.60;7.80;;;;;;;;;;4550375;28;20730;-71
2021/11/26 01:29:16;;;;;;;12.65;7.68;;;;;;;;;;4547157;28;20025;-71
2021/11/26 01:31:27;;;;;;;13.10;7.67;;;;;;;;;;4548333;28;22409;-71
2021/11/26 01:33:38;;;;;;;11.27;6.87;;;;;;;;;;4549507;28;20500;-72
2021/11/26 01:35:51;;;;;;;10.17;6.60;;;;;;;;;;4549060;28;20179;-72
2021/11/26 01:38:06;;;;;;;12.25;7.35;;;;;;;;;;4549993;28;20278;-72
2021/11/26 01:40:17;;;;;;;12.05;7.38;;;;;;;;;;4545988;28;20028;-72
2021/11/26 01:42:28;;;;;;;10.95;6.93;;;;;;;;;;4549247;28;20032;-72
2021/11/26 01:44:40;;;;;;;10.50;6.83;;;;;;;;;;4548752;28;20052;-71
2021/11/26 01:46:51;;;;;;;10.18;6.93;;;;;;;;;;4546925;28;20040;-71
2021/11/26 01:49:01;;;;;;;10.70;6.70;;;;;;;;;;4547288;28;36139;-71
2021/11/26 01:51:11;;;;;;;10.40;6.97;;;;;;;;;;4548417;28;20043;-72
2021/11/26 01:53:22;;;;;;;12.20;7.17;;;;;;;;;;4547198;28;20095;-72
2021/11/26 01:55:33;;;;;;;11.90;7.30;;;;;;;;;;4548548;28;20075;-72
2021/11/26 01:57:45;;;;;;;10.80;7.25;;;;;;;;;;4548897;28;20041;-72
2021/11/26 01:59:55;;;;;;;11.23;7.15;;;;;;;;;;4548687;28;21296;-73
2021/11/26 02:02:06;;;;;;;10.73;7.10;;;;;;;;;;4547331;28;20116;-72
2021/11/26 02:04:16;;;;;;;10.67;6.93;;;;;;;;;;4548556;28;20033;-72
2021/11/26 02:06:26;;;;;;;11.37;7.13;;;;;;;;;;4544674;28;20512;-72
2021/11/26 02:08:37;;;;;;;11.47;6.53;;;;;;;;;;4549553;28;28084;-72
2021/11/26 02:10:47;;;;;;;11.37;6.87;;;;;;;;;;4531823;28;43743;-71
2021/11/26 02:12:58;;;;;;;10.27;6.30;;;;;;;;;;4546140;28;20033;-72
2021/11/26 02:15:09;;;;;;;11.57;6.87;;;;;;;;;;4548288;28;20068;-72
2021/11/26 02:17:19;;;;;;;10.17;5.97;;;;;;;;;;4548620;28;20350;-72
2021/11/26 02:19:30;;;;;;;10.63;6.63;;;;;;;;;;4549984;28;30066;-71
2021/11/26 02:21:41;;;;;;;10.27;6.40;;;;;;;;;;4546624;28;20544;-72
2021/11/26 02:23:51;;;;;;;11.00;6.70;;;;;;;;;;4546710;28;20064;-72
2021/11/26 02:26:02;;;;;;;11.57;6.13;;;;;;;;;;4545097;28;20048;-72
2021/11/26 02:28:15;;;;;;;10.10;6.13;;;;;;;;;;4547395;28;20588;-72
2021/11/26 02:30:25;;;;;;;10.52;6.10;;;;;;;;;;4548015;28;20283;-71
2021/11/26 02:32:36;;;;;;;8.80;5.37;;;;;;;;;;4545171;28;20449;-71
2021/11/26 02:34:46;;;;;;;9.40;5.80;;;;;;;;;;4546836;28;33969;-71
2021/11/26 02:36:57;;;;;;;9.83;5.80;;;;;;;;;;4543917;28;33176;-71
2021/11/26 02:39:09;;;;;;;9.53;5.90;;;;;;;;;;4546406;28;20287;-70
2021/11/26 02:41:19;;;;;;;11.68;6.72;;;;;;;;;;4548304;28;20044;-70
2021/11/26 02:43:30;;;;;;;9.37;5.63;;;;;;;;;;4555446;28;20047;-70
2021/11/26 02:45:42;;;;;;;9.87;5.43;;;;;;;;;;4546086;28;20390;-70
2021/11/26 02:47:53;;;;;;;9.88;5.80;;;;;;;;;;4547672;28;20033;-71
2021/11/26 02:50:05;;;;;;;;;;;;;;;;;;4544176;28;20029;-71
2021/11/26 02:52:15;;;;;;;9.63;5.22;;;;;;;;;;4547915;28;19928;-72
2021/11/26 02:54:26;;;;;;;11.43;6.23;;;;;;;;;;4546099;28;20436;-72
2021/11/26 02:56:36;;;;;;;9.10;5.50;;;;;;;;;;4548531;28;20186;-71
2021/11/26 02:58:47;;;;;;;9.93;5.87;;;;;;;;;;4544986;28;29063;-71
2021/11/26 03:00:58;;;;;;;9.33;5.47;;;;;;;;;;4546838;28;20086;-72
2021/11/26 03:03:09;;;;;;;9.73;5.70;;;;;;;;;;4545101;28;20041;-71
2021/11/26 03:05:20;;;;;;;9.93;5.40;;;;;;;;;;4545331;28;20052;-72
2021/11/26 03:07:31;;;;;;;11.45;6.43;;;;;;;;;;4529157;28;20299;-72
2021/11/26 03:09:41;;;;;;;9.77;6.00;;;;;;;;;;4545026;28;20454;-72
2021/11/26 03:11:52;;;;;;;10.13;5.97;;;;;;;;;;4547254;28;20142;-72
2021/11/26 03:14:02;;;;;;;10.07;5.47;;;;;;;;;;4546028;28;33935;-71
2021/11/26 03:16:13;;;;;;;10.27;5.97;;;;;;;;;;4545054;28;20032;-72
2021/11/26 03:18:26;;;;;;;9.43;5.80;;;;;;;;;;4542703;28;20094;-72
2021/11/26 03:20:36;;;;;;;9.38;5.45;;;;;;;;;;4546406;28;20033;-72
2021/11/26 03:22:48;;;;;;;10.13;5.83;;;;;;;;;;4545323;28;20045;-72
2021/11/26 03:24:58;;;;;;;10.60;6.07;;;;;;;;;;4548000;28;20044;-72
2021/11/26 03:27:09;;;;;;;10.10;5.20;;;;;;;;;;4545711;28;20024;-71
2021/11/26 03:29:19;;;;;;;10.30;5.67;;;;;;;;;;4544800;28;40833;-71
2021/11/26 03:31:30;;;;;;;8.70;5.00;;;;;;;;;;4545986;28;20790;-72
2021/11/26 03:33:40;;;;;;;8.80;5.07;;;;;;;;;;4547031;28;20043;-71
2021/11/26 03:35:50;;;;;;;8.60;4.87;;;;;;;;;;4547570;28;20024;-71
2021/11/26 03:38:02;;;;;;;10.07;5.30;;;;;;;;;;4546422;28;20017;-71
2021/11/26 03:40:14;;;;;;;8.73;4.93;;;;;;;;;;4555178;28;20155;-72
2021/11/26 03:42:24;;;;;;;9.35;5.30;;;;;;;;;;4551048;28;20138;-71
2021/11/26 03:44:35;;;;;;;9.33;4.80;;;;;;;;;;4548399;28;24061;-71
2021/11/26 03:46:45;;;;;;;8.27;4.70;;;;;;;;;;4544932;28;21007;-71
2021/11/26 03:48:56;;;;;;;7.97;4.80;;;;;;;;;;4546533;28;20167;-71
2021/11/26 03:51:06;;;;;;;9.17;4.83;;;;;;;;;;4545194;28;28460;-71
2021/11/26 03:53:16;;;;;;;8.73;4.33;;;;;;;;;;4545924;28;22653;-72
2021/11/26 03:55:27;;;;;;;8.57;4.20;;;;;;;;;;4547115;28;29394;-71
2021/11/26 03:57:39;;;;;;;7.00;4.28;;;;;;;;;;4545016;28;20128;-71
2021/11/26 03:59:50;;;;;;;8.35;4.50;;;;;;;;;;4561305;28;20998;-71
2021/11/26 04:02:00;;;;;;;9.30;4.40;;;;;;;;;;4546449;28;20033;-71
2021/11/26 04:04:11;;;;;;;8.50;4.90;;;;;;;;;;4545032;28;36200;-71
2021/11/26 04:06:21;;;;;;;8.07;4.37;;;;;;;;;;4545710;28;20043;-70
2021/11/26 04:08:31;;;;;;;7.70;4.10;;;;;;;;;;4547371;28;20052;-71
2021/11/26 04:10:42;;;;;;;8.07;4.33;;;;;;;;;;4545779;28;20044;-71
2021/11/26 04:12:53;;;;;;;7.53;4.43;;;;;;;;;;4547336;28;20100;-71
2021/11/26 04:15:06;;;;;;;6.57;4.20;;;;;;;;;;4548198;28;20102;-71
2021/11/26 04:17:17;;;;;;;7.95;4.55;;;;;;;;;;4544577;28;20033;-71
2021/11/26 04:19:27;;;;;;;7.43;4.13;;;;;;;;;;4544309;28;20497;-71
2021/11/26 04:21:38;;;;;;;8.03;4.47;;;;;;;;;;4548007;28;20120;-71
2021/11/26 04:23:48;;;;;;;8.40;4.87;;;;;;;;;;4547380;28;20060;-71
2021/11/26 04:25:59;;;;;;;9.07;4.87;;;;;;;;;;4546410;28;20123;-72
2021/11/26 04:28:09;;;;;;;8.07;4.60;;;;;;;;;;4544948;28;20036;-72
2021/11/26 04:30:21;;;;;;;7.03;4.30;;;;;;;;;;4554596;28;20107;-72
2021/11/26 04:32:32;;;;;;;9.43;5.18;;;;;;;;;;4542588;28;20036;-71
2021/11/26 04:34:43;;;;;;;9.50;5.07;;;;;;;;;;4529881;28;20046;-71
2021/11/26 04:36:53;;;;;;;9.02;5.07;;;;;;;;;;4545144;28;20033;-71
2021/11/26 04:39:04;;;;;;;8.77;4.90;;;;;;;;;;4546800;28;20033;-71
2021/11/26 04:41:15;;;;;;;7.15;4.60;;;;;;;;;;4545720;28;20040;-72
2021/11/26 04:43:26;;;;;;;9.50;5.00;;;;;;;;;;4545568;28;20029;-71
2021/11/26 04:45:36;;;;;;;9.80;5.13;;;;;;;;;;4544383;28;20786;-71
2021/11/26 04:47:47;;;;;;;9.70;5.20;;;;;;;;;;4545546;28;20135;-71
2021/11/26 04:49:58;;;;;;;9.43;5.33;;;;;;;;;;4546172;28;20044;-71
2021/11/26 04:52:08;;;;;;;8.07;5.15;;;;;;;;;;4545840;28;20595;-71
2021/11/26 04:54:19;;;;;;;9.63;5.50;;;;;;;;;;4546926;28;22332;-71
2021/11/26 04:56:30;;;;;;;9.00;5.23;;;;;;;;;;4548967;28;20036;-72
2021/11/26 04:58:40;;;;;;;9.95;5.38;;;;;;;;;;4551807;28;21263;-71
2021/11/26 05:00:51;;;;;;;9.20;5.10;;;;;;;;;;4548106;28;20060;-71
2021/11/26 05:03:01;;;;;;;8.27;5.00;;;;;;;;;;4551013;28;20076;-71
2021/11/26 05:05:12;;;;;;;8.27;4.90;;;;;;;;;;4547846;28;20044;-72
2021/11/26 05:07:24;;;;;;;8.63;5.50;;;;;;;;;;4549109;28;20037;-71
2021/11/26 05:09:34;;;;;;;8.60;5.18;;;;;;;;;;4548804;28;20273;-71
2021/11/26 05:11:46;;;;;;;8.73;5.30;;;;;;;;;;4548335;28;20028;-71
2021/11/26 05:13:57;;;;;;;7.35;4.68;;;;;;;;;;4549465;28;20549;-71
2021/11/26 05:16:08;;;;;;;8.73;5.40;;;;;;;;;;4544948;28;20052;-70
2021/11/26 05:18:23;;;;;;;8.17;5.03;;;;;;;;;;4548458;28;20040;-71
2021/11/26 05:20:35;;;;;;;8.73;5.13;;;;;;;;;;4547772;28;21329;-71
2021/11/26 05:22:45;;;;;;;8.27;5.32;;;;;;;;;;4547542;28;20073;-71
2021/11/26 05:24:56;;;;;;;10.53;5.97;;;;;;;;;;4547647;28;23208;-71
2021/11/26 05:27:06;;;;;;;10.13;5.33;;;;;;;;;;4549418;28;20903;-71
2021/11/26 05:29:16;;;;;;;10.77;5.47;;;;;;;;;;4549485;28;20047;-71
2021/11/26 05:31:27;;;;;;;9.23;5.40;;;;;;;;;;4546048;28;20021;-71
2021/11/26 05:33:37;;;;;;;8.93;5.27;;;;;;;;;;4548674;28;20036;-71
2021/11/26 05:35:48;;;;;;;8.60;5.27;;;;;;;;;;4550110;28;20039;-71
2021/11/26 05:37:58;;;;;;;9.27;5.33;;;;;;;;;;4548749;28;20053;-71
2021/11/26 05:40:11;;;;;;;9.17;5.00;;;;;;;;;;4548806;28;20111;-72
2021/11/26 05:42:21;;;;;;;8.20;5.40;;;;;;;;;;4547330;28;20087;-71
2021/11/26 05:44:31;;;;;;;8.60;5.23;;;;;;;;;;4548779;28;32944;-71
2021/11/26 05:46:42;;;;;;;9.33;5.83;;;;;;;;;;4547302;28;35468;-72
2021/11/26 05:48:52;;;;;;;9.43;5.43;;;;;;;;;;4548546;28;20808;-72
2021/11/26 05:51:03;;;;;;;9.70;5.50;;;;;;;;;;4547124;28;20032;-72
2021/11/26 05:53:14;;;;;;;9.13;5.03;;;;;;;;;;4546262;28;22424;-72
2021/11/26 05:55:27;;;;;;;9.48;5.78;;;;;;;;;;4546970;28;21270;-72
2021/11/26 05:57:37;;;;;;;8.27;5.07;;;;;;;;;;4547047;28;20041;-71
2021/11/26 05:59:47;;;;;;;8.43;4.80;;;;;;;;;;4549771;28;20472;-71
2021/11/26 06:01:58;;;;;;;7.37;4.67;;;;;;;;;;4547583;28;21727;-71
2021/11/26 06:04:09;;;;;;;8.20;4.97;;;;;;;;;;4544953;28;20044;-71
2021/11/26 06:06:19;;;;;;;8.23;4.90;;;;;;;;;;4546394;28;20044;-71
2021/11/26 06:08:30;;;;;;;7.37;4.77;;;;;;;;;;4547644;28;20903;-71
2021/11/26 06:10:40;;;;;;;9.23;5.50;;;;;;;;;;4548030;28;20111;-71
2021/11/26 06:12:52;;;;;;;7.43;4.73;;;;;;;;;;4547082;28;29278;-71
2021/11/26 06:15:02;;;;;;;8.07;5.00;;;;;;;;;;4547455;28;20041;-71
2021/11/26 06:17:13;;;;;;;8.53;5.13;;;;;;;;;;4545615;28;20032;-71
2021/11/26 06:19:23;;;;;;;7.23;4.87;;;;;;;;;;4547855;28;32132;-71
2021/11/26 06:21:34;;;;;;;9.03;5.23;;;;;;;;;;4548573;28;20040;-72
2021/11/26 06:23:44;;;;;;;8.37;5.27;;;;;;;;;;4556949;28;20044;-71
2021/11/26 06:25:55;;;;;;;8.17;4.80;;;;;;;;;;4546200;28;20368;-71
2021/11/26 06:28:05;;;;;;;8.23;4.80;;;;;;;;;;4548013;28;25261;-72
2021/11/26 06:30:19;;;;;;;8.53;5.00;;;;;;;;;;4538659;28;20037;-72
2021/11/26 06:32:29;;;;;;;8.25;5.18;;;;;;;;;;4547727;28;20140;-72
2021/11/26 06:34:40;;;;;;;8.83;5.37;;;;;;;;;;4546441;28;20517;-72
2021/11/26 06:36:50;;;;;;;8.10;5.37;;;;;;;;;;4546923;28;33010;-72
2021/11/26 06:39:01;;;;;;;10.27;6.20;;;;;;;;;;4547181;28;20048;-72
2021/11/26 06:41:12;;;;;;;10.02;5.68;;;;;;;;;;4547853;28;20190;-72
2021/11/26 06:43:22;;;;;;;7.73;5.47;;;;;;;;;;4548376;28;20707;-72
2021/11/26 06:45:33;;;;;;;8.33;5.33;;;;;;;;;;4547900;28;20045;-72
2021/11/26 06:47:45;;;;;;;9.03;5.73;;;;;;;;;;4547106;28;20389;-72
2021/11/26 06:49:56;;;;;;;9.65;5.93;;;;;;;;;;4545020;28;20114;-72
2021/11/26 06:52:06;;;;;;;8.57;5.43;;;;;;;;;;4547235;28;20852;-72
2021/11/26 06:54:17;;;;;;;8.53;5.40;;;;;;;;;;4547369;28;20032;-72
2021/11/26 06:56:28;;;;;;;7.50;5.10;;;;;;;;;;4545623;28;20078;-72
2021/11/26 06:58:38;;;;;;;8.20;5.30;;;;;;;;;;4546421;28;20037;-72
2021/11/26 07:00:49;;;;;;;7.27;4.93;;;;;;;;;;4546891;28;20283;-72
2021/11/26 07:02:59;;;;;;;9.80;5.90;;;;;;;;;;4548174;28;20048;-72
2021/11/26 07:05:10;;;;;;;8.83;5.57;;;;;;;;;;4531580;28;20047;-72
2021/11/26 07:07:20;;;;;;;8.20;5.20;;;;;;;;;;4546749;28;20047;-72
2021/11/26 07:09:31;;;;;;;9.03;5.63;;;;;;;;;;4546599;28;20451;-72
2021/11/26 07:11:41;;;;;;;8.23;4.90;;;;;;;;;;4547456;28;20028;-72
2021/11/26 07:13:51;;;;;;;8.87;5.23;;;;;;;;;;4538492;28;20037;-72
2021/11/26 07:16:02;;;;;;;8.80;5.50;;;;;;;;;;4545651;28;20072;-72
2021/11/26 07:18:13;;;;;;;8.03;5.13;;;;;;;;;;4549854;28;20500;-72
2021/11/26 07:20:23;;;;;;;8.80;5.40;;;;;;;;;;4546751;28;20064;-72
2021/11/26 07:22:34;;;;;;;8.50;5.13;;;;;;;;;;4547716;28;20036;-72
2021/11/26 07:24:45;;;;;;;10.37;5.73;;;;;;;;;;4545527;28;20040;-72
2021/11/26 07:26:56;;;;;;;7.78;4.85;;;;;;;;;;4545439;28;20037;-72
2021/11/26 07:29:06;;;;;;;7.43;4.90;;;;;;;;;;4547911;28;20052;-72
2021/11/26 07:31:17;;;;;;;6.63;4.67;;;;;;;;;;4548423;28;20754;-73
2021/11/26 07:33:27;;;;;;;7.30;5.00;;;;;;;;;;4545775;28;20047;-73
2021/11/26 07:35:40;;;;;;;7.23;4.90;;;;;;;;;;4545647;28;20033;-73
2021/11/26 07:37:51;;;;;;;6.95;4.55;;;;;;;;;;4548388;28;20029;-73
2021/11/26 07:40:02;;;;;;;7.10;4.67;;;;;;;;;;4546219;28;20029;-73
2021/11/26 07:42:13;;;;;;;7.68;5.03;;;;;;;;;;4544368;28;20037;-73
2021/11/26 07:44:24;;;;;;;7.15;5.13;;;;;;;;;;4542393;28;20594;-73
2021/11/26 07:46:34;;;;;;;8.17;4.80;;;;;;;;;;4547621;28;20045;-73
2021/11/26 07:48:45;;;;;;;6.90;4.63;;;;;;;;;;4546757;28;20463;-73
2021/11/26 07:50:55;;;;;;;5.77;4.07;;;;;;;;;;4546906;28;20041;-73
2021/11/26 07:53:06;;;;;;;8.00;5.00;;;;;;;;;;4545142;28;20112;-73
2021/11/26 07:55:16;;;;;;;7.57;4.87;;;;;;;;;;4554419;28;20050;-73
2021/11/26 07:57:27;;;;;;;8.53;4.70;;;;;;;;;;4545814;28;20060;-72
2021/11/26 07:59:38;;;;;;;7.80;4.90;;;;;;;;;;4545988;28;20082;-72
2021/11/26 08:01:48;;;;;;;7.60;4.72;;;;;;;;;;4555323;28;20067;-73
2021/11/26 08:03:59;;;;;;;7.43;4.80;;;;;;;;;;4544315;28;33679;-73
2021/11/26 08:06:09;;;;;;;7.27;5.00;;;;;;;;;;4545585;28;20037;-73
2021/11/26 08:08:19;;;;;;;7.20;5.00;;;;;;;;;;4545446;28;20508;-73
2021/11/26 08:10:30;;;;;;;7.60;5.03;;;;;;;;;;4546071;28;20051;-73
2021/11/26 08:12:41;;;;;;;7.97;4.90;;;;;;;;;;4545550;28;32963;-73
2021/11/26 08:14:53;;;;;;;7.55;4.72;;;;;;;;;;4547315;28;20036;-73
2021/11/26 08:17:03;;;;;;;7.30;4.68;;;;;;;;;;4544711;28;20017;-73
2021/11/26 08:19:13;;;;;;;7.73;5.23;;;;;;;;;;4547647;28;20037;-73
2021/11/26 08:21:24;;;;;;;9.27;5.23;;;;;;;;;;4547909;28;20108;-73
2021/11/26 08:23:35;;;;;;;6.17;4.33;;;;;;;;;;4546403;28;20179;-73
2021/11/26 08:25:45;;;;;;;6.37;5.00;;;;;;;;;;4544952;28;20072;-73
2021/11/26 08:27:56;;;;;;;8.83;5.20;;;;;;;;;;4549060;28;20124;-73
2021/11/26 08:30:07;;;;;;;6.03;4.20;;;;;;;;;;4549258;28;20116;-73
2021/11/26 08:32:17;;;;;;;7.60;5.15;;;;;;;;;;4547043;28;20129;-72
2021/11/26 08:34:27;;;;;;;6.40;4.30;;;;;;;;;;4548639;28;20178;-72
2021/11/26 08:36:38;;;;;;;7.40;4.30;;;;;;;;;;4549655;28;20051;-73
2021/11/26 08:38:50;;;;;;;4.88;3.75;;;;;;;;;;4548003;28;20094;-73
2021/11/26 08:41:00;;;;;;;5.35;3.80;;;;;;;;;;4535200;28;20094;-72
2021/11/26 08:43:11;;;;;;;5.67;3.87;;;;;;;;;;4548219;28;20066;-73
2021/11/26 08:45:22;;;;;;;5.03;3.67;;;;;;;;;;4547755;28;20052;-73
2021/11/26 08:47:32;;;;;;;4.83;3.43;;;;;;;;;;4550770;28;20550;-73
2021/11/26 08:49:43;;;;;;;6.17;3.60;;;;;;;;;;4547185;28;20048;-73
2021/11/26 08:51:55;;;;;;;4.15;3.25;;;;;;;;;;4549342;28;20028;-73
2021/11/26 08:54:06;;;;;;;4.18;3.25;;;;;;;;;;4546823;28;20351;-73
2021/11/26 08:56:18;;;;;;;5.07;3.40;;;;;;;;;;4546759;28;20591;-73
2021/11/26 08:58:30;;;;;;;4.90;3.10;;;;;;;;;;4547575;28;20025;-73
2021/11/26 09:00:41;;;;;;;4.13;3.25;;;;;;;;;;4547189;28;21351;-72
2021/11/26 09:02:52;;;;;;;3.83;2.72;;;;;;;;;;4533275;28;20033;-72
2021/11/26 09:05:03;;;;;;;4.43;2.70;;;;;;;;;;4546713;28;20116;-73
2021/11/26 09:07:14;;;;;;;3.88;2.90;;;;;;;;;;4546719;28;20075;-72
2021/11/26 09:09:24;;;;;;;4.43;3.30;;;;;;;;;;4545678;28;20035;-73
2021/11/26 09:11:35;;;;;;;3.33;2.63;;;;;;;;;;4546327;28;20036;-73
2021/11/26 09:13:45;;;;;;;4.03;2.80;;;;;;;;;;4548311;28;20040;-73
2021/11/26 09:15:56;;;;;;;3.83;2.90;;;;;;;;;;4546629;28;20044;-73
2021/11/26 09:18:07;;;;;;;2.80;2.40;;;;;;;;;;4548898;28;20116;-73
2021/11/26 09:20:18;;;;;;;;;;;;;;;;;;4548393;28;20040;-73
2021/11/26 09:22:30;;;;;;;3.88;2.50;;;;;;;;;;4549661;28;19916;-73
2021/11/26 09:24:41;;;;;;;3.00;2.40;;;;;;;;;;4546786;28;21083;-72
2021/11/26 09:26:51;;;;;;;2.80;2.30;;;;;;;;;;4548040;28;20105;-72
2021/11/26 09:29:01;;;;;;;3.70;2.40;;;;;;;;;;4548795;28;20064;-74
2021/11/26 09:31:12;;;;;;;3.03;2.40;;;;;;;;;;4547837;28;20036;-74
2021/11/26 09:33:22;;;;;;;2.60;2.10;;;;;;;;;;4548192;28;20503;-74
2021/11/26 09:35:33;;;;;;;3.13;1.97;;;;;;;;;;4545705;28;21304;-74
2021/11/26 09:37:43;;;;;;;1.67;1.57;;;;;;;;;;4547344;28;20041;-74
2021/11/26 09:39:54;;;;;;;1.90;1.70;;;;;;;;;;4546769;28;20279;-74
2021/11/26 09:42:04;;;;;;;2.40;1.60;;;;;;;;;;4548040;28;20037;-74
2021/11/26 09:44:15;;;;;;;1.80;1.50;;;;;;;;;;4547872;28;20498;-73
2021/11/26 09:46:29;;;;;;;2.63;2.10;;;;;;;;;;4548886;28;20072;-73
2021/11/26 09:48:39;;;;;;;2.85;2.20;;;;;;;;;;4549381;28;20143;-73
2021/11/26 09:50:49;;;;;;;1.77;1.50;;;;;;;;;;4546381;28;20039;-74
2021/11/26 09:53:27;;;;;;;2.20;1.90;;;;;;;;;;4547185;28;20159;-74
2021/11/26 09:55:42;;;;;;;2.97;1.80;;;;;;;;;;4542610;28;20053;-73
2021/11/26 09:57:52;;;;;;;3.67;2.30;;;;;;;;;;4545439;28;20047;-73
2021/11/26 10:00:07;;;;;;;3.17;2.27;;;;;;;;;;4547232;28;20052;-74
2021/11/26 10:02:20;;;;;;;3.60;2.00;;;;;;;;;;4546753;28;21354;-73
2021/11/26 10:04:30;;;;;;;2.80;2.05;;;;;;;;;;4537238;28;20033;-73
2021/11/26 10:06:41;;;;;;;3.47;2.23;;;;;;;;;;4544263;28;20037;-73
2021/11/26 10:08:59;;;;;;;1.73;1.43;;;;;;;;;;4544633;28;20509;-73
2021/11/26 10:11:10;;;;;;;2.03;1.60;;;;;;;;;;4548150;28;20056;-73
2021/11/26 10:13:20;;;;;;;1.27;1.10;;;;;;;;;;4546641;28;25741;-73
2021/11/26 10:15:37;;;;;;;1.40;1.20;;;;;;;;;;4554088;28;20029;-73
2021/11/26 10:17:47;;;;;;;1.20;1.10;;;;;;;;;;4543802;28;20032;-73
2021/11/26 10:20:01;;;;;;;1.30;1.00;;;;;;;;;;4544934;28;20040;-74
2021/11/26 10:22:19;;;;;;;1.17;1.00;;;;;;;;;;4544493;28;20043;-73
2021/11/26 10:24:30;;;;;;;1.35;1.10;;;;;;;;;;4543589;28;20031;-73
2021/11/26 10:26:49;;;;;;;1.17;1.07;;;;;;;;;;4555030;28;20706;-73
2021/11/26 10:29:02;;;;;;;1.05;0.90;;;;;;;;;;4545007;28;20641;-73
2021/11/26 10:31:25;;;;;;;1.10;0.93;;;;;;;;;;4543729;28;20040;-73
2021/11/26 10:33:36;;;;;;;2.22;1.90;;;;;;;;;;4545178;28;20033;-73
2021/11/26 10:35:57;;;;;;;1.77;1.50;;;;;;;;;;4545173;28;20473;-72
2021/11/26 10:38:18;;;;;;;1.98;1.40;;;;;;;;;;4549076;28;21211;-73
2021/11/26 10:40:32;;;;;;;1.00;0.85;;;;;;;;;;4545983;28;20040;-73
2021/11/26 10:42:44;;;;;;;0.60;0.60;;;;;;;;;;4546650;28;21018;-73
2021/11/26 10:45:06;;;;;;;0.60;0.60;;;;;;;;;;4544932;28;21019;-73
2021/11/26 10:52:23;;;;;;;0.65;0.60;;;;;;;;;;4545852;28;20045;-73
2021/11/26 10:57:26;;;;;;;0.50;0.50;;;;;;;;;;4548552;28;20079;-73
2021/11/26 10:59:38;;;;;;;1.15;1.00;;;;;;;;;;4546344;28;20033;-73
2021/11/26 11:01:48;;;;;;;1.08;0.60;;;;;;;;;;4545977;28;20110;-73
2021/11/26 11:04:15;;;;;;;1.43;0.50;;;;;;;;;;4554420;28;20060;-74
2021/11/26 11:06:25;;;;;;;0.85;0.38;;;;;;;;;;4548392;28;20102;-73
2021/11/26 11:08:36;;;;;;;0.40;0.40;;;;;;;;;;4547071;28;20118;-73
2021/11/26 11:10:46;;;;;;;0.67;0.50;;;;;;;;;;4548324;28;34850;-73
2021/11/26 11:12:59;;;;;;;0.50;0.50;;;;;;;;;;4545682;28;20477;-73
2021/11/26 11:15:11;;;;;;;0.88;0.55;;;;;;;;;;4544975;28;20076;-73
2021/11/26 11:17:24;;;;;;;0.40;0.40;;;;;;;;;;4546375;28;20044;-73
2021/11/26 11:19:34;;;;;;;0.50;0.50;;;;;;;;;;4547281;28;20069;-73
2021/11/26 11:21:46;;;;;;;0.67;0.50;;;;;;;;;;4546035;28;20702;-73
2021/11/26 11:23:56;;;;;;;;;;;;;;;;;;4545328;28;20036;-72
2021/11/26 11:26:07;;;;;;;0.50;0.50;;;;;;;;;;4547650;28;19931;-73
2021/11/26 11:28:18;;;;;;;0.65;0.60;;;;;;;;;;4545463;28;20493;-73
2021/11/26 11:30:28;;;;;;;0.73;0.60;;;;;;;;;;4543022;28;20467;-73
2021/11/26 11:32:39;;;;;;;0.50;0.50;;;;;;;;;;4544849;28;20063;-74
2021/11/26 11:34:50;;;;;;;0.60;0.60;;;;;;;;;;4546642;28;20037;-74
2021/11/26 11:37:03;;;;;;;0.57;0.57;;;;;;;;;;4529869;28;20185;-73
2021/11/26 11:39:13;;;;;;;0.63;0.63;;;;;;;;;;4544880;28;20823;-74
2021/11/26 11:41:24;;;;;;;0.60;0.60;;;;;;;;;;4545492;28;20025;-74
2021/11/26 11:43:53;;;;;;;0.50;0.50;;;;;;;;;;4545299;28;20214;-74
2021/11/26 11:46:05;;;;;;;1.02;0.73;;;;;;;;;;4544958;28;20060;-74
2021/11/26 11:48:22;;;;;;;1.10;0.60;;;;;;;;;;4545161;28;20583;-74
2021/11/26 11:50:42;;;;;;;1.25;0.77;;;;;;;;;;4547557;28;20598;-73
2021/11/26 11:52:58;;;;;;;1.65;0.70;;;;;;;;;;4545922;28;20175;-73
2021/11/26 11:55:20;;;;;;;1.58;0.80;;;;;;;;;;4543353;28;20587;-74
2021/11/26 11:57:31;;;;;;;1.00;0.73;;;;;;;;;;4545290;28;20063;-73
2021/11/26 11:59:41;;;;;;;1.20;0.70;;;;;;;;;;4545385;28;20047;-73
2021/11/26 12:01:52;;;;;;;1.07;0.80;;;;;;;;;;4543060;28;20053;-74
2021/11/26 12:04:15;;;;;;;1.23;0.80;;;;;;;;;;4546294;28;20078;-74
2021/11/26 12:06:39;;;;;;;1.42;0.93;;;;;;;;;;4554341;28;20044;-75
2021/11/26 12:08:55;;;;;;;1.60;0.90;;;;;;;;;;4547540;28;20029;-75
2021/11/26 12:11:06;;;;;;;2.08;0.90;;;;;;;;;;4527649;28;21320;-75
2021/11/26 12:13:22;;;;;;;1.17;0.80;;;;;;;;;;4545917;28;20090;-74
2021/11/26 12:15:33;;;;;;;1.10;0.80;;;;;;;;;;4544311;28;20259;-75
2021/11/26 12:17:55;;;;;;;1.75;1.10;;;;;;;;;;4547344;28;20037;-74
2021/11/26 12:20:21;;;;;;;1.27;1.00;;;;;;;;;;4547045;28;20041;-75
2021/11/26 12:22:34;;;;;;;2.33;1.17;;;;;;;;;;4544837;28;20070;-75
2021/11/26 12:24:50;;;;;;;1.50;0.88;;;;;;;;;;4543522;28;21754;-74
2021/11/26 12:27:01;;;;;;;2.30;1.20;;;;;;;;;;4545114;28;21604;-75
2021/11/26 12:29:12;;;;;;;2.73;1.20;;;;;;;;;;4546955;28;20127;-74
2021/11/26 12:31:30;;;;;;;2.20;1.10;;;;;;;;;;4545611;28;20052;-74
2021/11/26 12:33:41;;;;;;;1.00;0.80;;;;;;;;;;4546589;28;20191;-74
2021/11/26 12:36:01;;;;;;;2.53;1.10;;;;;;;;;;4546883;28;20064;-73
2021/11/26 12:38:12;;;;;;;1.25;0.98;;;;;;;;;;4547080;28;20037;-73
2021/11/26 12:40:25;;;;;;;1.67;1.15;;;;;;;;;;4545163;28;20029;-73
2021/11/26 12:42:36;;;;;;;2.67;1.20;;;;;;;;;;4545070;28;20047;-73
2021/11/26 12:45:02;;;;;;;3.00;1.40;;;;;;;;;;4531974;28;20031;-73
2021/11/26 12:47:14;;;;;;;1.90;1.30;;;;;;;;;;4544862;28;20562;-73
2021/11/26 12:51:49;;;;;;;2.00;1.20;;;;;;;;;;4545177;28;20056;-73
2021/11/26 12:54:03;;;;;;;2.42;1.40;;;;;;;;;;4554027;28;20045;-74
2021/11/26 12:56:14;;;;;;;3.15;1.40;;;;;;;;;;4529174;28;20029;-74
2021/11/26 12:58:28;;;;;;;3.08;1.33;;;;;;;;;;4543939;28;20033;-73
2021/11/26 13:00:39;;;;;;;3.20;1.48;;;;;;;;;;4545282;28;20086;-74
2021/11/26 13:02:50;;;;;;;2.47;1.40;;;;;;;;;;4546444;28;20518;-73
2021/11/26 13:05:09;;;;;;;2.50;1.30;;;;;;;;;;4546424;28;20045;-74
2021/11/26 13:07:23;;;;;;;2.67;1.40;;;;;;;;;;4543756;28;20035;-73
2021/11/26 13:09:43;;;;;;;2.38;1.38;;;;;;;;;;4545340;28;20524;-73
2021/11/26 13:11:54;;;;;;;3.10;1.30;;;;;;;;;;4546525;28;20037;-73
2021/11/26 13:14:06;;;;;;;3.07;1.60;;;;;;;;;;4547679;28;20477;-74
2021/11/26 13:16:18;;;;;;;3.13;1.33;;;;;;;;;;4546379;28;20644;-73
2021/11/26 13:18:29;;;;;;;1.80;1.20;;;;;;;;;;4532699;28;20040;-74
2021/11/26 13:20:52;;;;;;;3.22;1.40;;;;;;;;;;4548813;28;20037;-73